Time,TemperatureF,DewpointF,PressureIn,WindDirection,WindDirectionDegrees,WindSpeedMPH,WindSpeedGustMPH,Humidity,HourlyPrecipIn,Conditions,Clouds,dailyrainin,SoftwareType,DateUTC
2013-04-11 00:09:00,47.0,45.9,29.83,SE,146,2.0,2.0,96,0.08,,SKC,0.13,VWS V14.01,2013-04-11 04:09:00,
2013-04-11 00:10:00,46.7,45.9,29.84,ESE,123,0.0,0.0,97,0.00,,SKC,0.00,VWS V14.01,2013-04-11 04:10:00,
2013-04-11 00:11:00,46.8,46.3,29.84,ESE,123,0.0,0.0,98,0.00,,SKC,0.00,VWS V14.01,2013-04-11 04:11:00,
2013-04-11 00:12:00,46.7,45.9,29.84,ESE,123,0.0,0.0,97,0.00,,SKC,0.00,VWS V14.01,2013-04-11 04:12:00,
2013-04-11 00:17:00,46.4,45.9,29.83,ESE,123,0.0,1.0,98,0.00,,SKC,0.00,VWS V14.01,2013-04-11 04:17:00,
2013-04-11 00:20:00,46.1,45.6,29.85,ESE,123,0.0,1.0,98,0.00,,SKC,0.00,VWS V14.01,2013-04-11 04:20:00,
2013-04-11 00:22:00,46.1,45.6,29.85,ESE,123,0.0,0.0,98,0.00,,SKC,0.00,VWS V14.01,2013-04-11 04:22:00,
2013-04-11 00:27:00,46.0,45.5,29.85,ESE,123,0.0,0.0,98,0.01,,SKC,0.01,VWS V14.01,2013-04-11 04:27:00,
2013-04-11 00:30:00,45.8,45.3,29.84,ESE,123,0.0,0.0,98,0.01,,SKC,0.01,VWS V14.01,2013-04-11 04:30:00,
2013-04-11 00:33:00,45.8,45.3,29.84,ESE,123,0.0,0.0,98,0.01,,SKC,0.01,VWS V14.01,2013-04-11 04:33:00,
2013-04-11 00:38:00,45.8,45.3,29.84,ESE,123,0.0,0.0,98,0.01,,SKC,0.01,VWS V14.01,2013-04-11 04:38:00,
2013-04-11 00:40:00,45.7,45.2,29.84,ESE,123,0.0,0.0,98,0.02,,SKC,0.02,VWS V14.01,2013-04-11 04:40:00,
2013-04-11 00:43:00,45.7,45.2,29.83,ESE,123,0.0,0.0,98,0.02,,SKC,0.02,VWS V14.01,2013-04-11 04:43:00,
2013-04-11 00:50:00,45.7,45.2,29.83,North,0,0.0,0.0,98,0.02,,SKC,0.02,VWS V14.01,2013-04-11 04:50:00,
2013-04-11 01:00:00,45.5,45.0,29.81,North,0,0.0,0.0,98,0.02,,SKC,0.02,VWS V14.01,2013-04-11 05:00:00,
2013-04-11 01:10:00,45.5,45.0,29.82,ESE,112,0.0,1.0,98,0.03,,SKC,0.03,VWS V14.01,2013-04-11 05:10:00,
2013-04-11 01:20:00,45.4,44.9,29.80,ESE,112,0.0,0.0,98,0.03,,SKC,0.03,VWS V14.01,2013-04-11 05:20:00,
2013-04-11 01:30:00,45.4,44.9,29.80,ESE,112,0.0,0.0,98,0.04,,SKC,0.04,VWS V14.01,2013-04-11 05:30:00,
2013-04-11 01:40:00,45.5,45.0,29.78,ESE,112,0.0,0.0,98,0.03,,SKC,0.04,VWS V14.01,2013-04-11 05:40:00,
2013-04-11 01:50:00,45.5,45.0,29.78,ESE,112,0.0,0.0,98,0.03,,SKC,0.05,VWS V14.01,2013-04-11 05:50:00,
2013-04-11 02:00:00,45.5,45.0,29.79,ESE,112,0.0,0.0,98,0.03,,SKC,0.05,VWS V14.01,2013-04-11 06:00:00,
2013-04-11 02:10:00,45.7,45.4,29.81,ESE,112,0.0,1.0,99,0.03,,SKC,0.05,VWS V14.01,2013-04-11 06:10:00,
2013-04-11 02:20:00,46.0,45.7,29.81,ESE,112,0.0,1.0,99,0.03,,SKC,0.06,VWS V14.01,2013-04-11 06:20:00,
2013-04-11 02:30:00,46.2,45.9,29.79,ESE,112,0.0,0.0,99,0.03,,SKC,0.06,VWS V14.01,2013-04-11 06:30:00,
2013-04-11 02:40:00,46.7,46.4,29.80,ESE,112,0.0,1.0,99,0.02,,SKC,0.06,VWS V14.01,2013-04-11 06:40:00,
2013-04-11 02:50:00,46.8,46.5,29.79,ESE,112,0.0,0.0,99,0.03,,SKC,0.07,VWS V14.01,2013-04-11 06:50:00,
2013-04-11 03:00:00,47.0,46.7,29.79,ESE,112,0.0,1.0,99,0.02,,SKC,0.07,VWS V14.01,2013-04-11 07:00:00,
2013-04-11 03:10:00,47.0,46.7,29.78,ESE,112,0.0,1.0,99,0.02,,SKC,0.07,VWS V14.01,2013-04-11 07:10:00,
2013-04-11 03:20:00,46.7,46.4,29.77,ESE,112,0.0,0.0,99,0.03,,SKC,0.08,VWS V14.01,2013-04-11 07:20:00,
2013-04-11 03:30:00,46.5,46.2,29.78,ESE,112,0.0,2.0,99,0.02,,SKC,0.08,VWS V14.01,2013-04-11 07:30:00,
2013-04-11 03:40:00,46.4,46.1,29.78,ESE,112,0.0,2.0,99,0.02,,SKC,0.08,VWS V14.01,2013-04-11 07:40:00,
2013-04-11 03:50:00,46.0,45.7,29.78,ESE,112,0.0,4.0,99,0.02,,SKC,0.08,VWS V14.01,2013-04-11 07:50:00,
2013-04-11 04:00:00,45.5,45.2,29.78,ESE,112,0.0,2.0,99,0.02,,SKC,0.09,VWS V14.01,2013-04-11 08:00:00,
2013-04-11 04:10:00,45.1,44.8,29.79,ESE,112,0.0,5.0,99,0.02,,SKC,0.09,VWS V14.01,2013-04-11 08:10:00,
2013-04-11 04:20:00,44.9,44.6,29.80,ESE,112,0.0,4.0,99,0.02,,SKC,0.09,VWS V14.01,2013-04-11 08:20:00,
2013-04-11 04:30:00,44.8,44.5,29.80,NE,45,0.0,2.0,99,0.01,,SKC,0.09,VWS V14.01,2013-04-11 08:30:00,
2013-04-11 04:40:00,44.8,44.5,29.81,NE,45,0.0,2.0,99,0.01,,SKC,0.09,VWS V14.01,2013-04-11 08:40:00,
2013-04-11 04:50:00,44.9,44.6,29.81,NE,45,0.0,2.0,99,0.02,,SKC,0.10,VWS V14.01,2013-04-11 08:50:00,
2013-04-11 05:00:00,45.1,45.1,29.82,NE,45,0.0,2.0,100,0.02,,SKC,0.10,VWS V14.01,2013-04-11 09:00:00,
2013-04-11 05:10:00,45.4,45.4,29.82,NE,45,0.0,1.0,100,0.01,,SKC,0.10,VWS V14.01,2013-04-11 09:10:00,
2013-04-11 05:20:00,45.5,45.5,29.82,NE,45,0.0,3.0,100,0.01,,SKC,0.10,VWS V14.01,2013-04-11 09:20:00,
2013-04-11 05:30:00,45.7,45.7,29.82,NE,45,0.0,1.0,100,0.01,,SKC,0.10,VWS V14.01,2013-04-11 09:30:00,
2013-04-11 05:40:00,45.8,45.8,29.83,NE,45,0.0,1.0,100,0.01,,SKC,0.10,VWS V14.01,2013-04-11 09:40:00,
2013-04-11 05:50:00,45.8,45.8,29.84,NE,45,0.0,0.0,100,0.01,,SKC,0.10,VWS V14.01,2013-04-11 09:50:00,
2013-04-11 06:00:00,46.0,46.0,29.85,NE,45,0.0,1.0,100,0.00,,SKC,0.10,VWS V14.01,2013-04-11 10:00:00,
2013-04-11 06:10:00,46.1,46.1,29.86,NE,45,0.0,0.0,100,0.00,,SKC,0.10,VWS V14.01,2013-04-11 10:10:00,
2013-04-11 06:20:00,46.4,46.4,29.87,NE,45,0.0,1.0,100,0.00,,SKC,0.10,VWS V14.01,2013-04-11 10:20:00,
2013-04-11 06:30:00,46.5,46.5,29.87,NE,45,0.0,0.0,100,0.00,,SKC,0.10,VWS V14.01,2013-04-11 10:30:00,
2013-04-11 06:40:00,46.7,46.7,29.87,NE,45,0.0,0.0,100,0.00,,SKC,0.10,VWS V14.01,2013-04-11 10:40:00,
2013-04-11 06:50:00,47.0,47.0,29.88,NE,45,0.0,1.0,100,0.00,,SKC,0.10,VWS V14.01,2013-04-11 10:50:00,
2013-04-11 07:00:00,47.3,47.3,29.89,NE,45,0.0,3.0,100,0.00,,SKC,0.10,VWS V14.01,2013-04-11 11:00:00,
2013-04-11 07:10:00,47.7,47.7,29.90,NE,45,0.0,2.0,100,0.00,,SKC,0.10,VWS V14.01,2013-04-11 11:10:00,
2013-04-11 07:20:00,47.9,47.9,29.90,NE,45,0.0,1.0,100,0.00,,SKC,0.10,VWS V14.01,2013-04-11 11:20:00,
2013-04-11 07:30:00,48.2,48.2,29.90,NE,45,0.0,0.0,100,0.00,,SKC,0.10,VWS V14.01,2013-04-11 11:30:00,
2013-04-11 07:40:00,48.6,48.6,29.91,NE,45,0.0,1.0,100,0.00,,SKC,0.10,VWS V14.01,2013-04-11 11:40:00,
2013-04-11 07:50:00,48.9,48.9,29.91,NE,45,0.0,1.0,100,0.00,,SKC,0.10,VWS V14.01,2013-04-11 11:50:00,
2013-04-11 08:00:00,49.1,49.1,29.91,NE,45,0.0,1.0,100,0.00,,SKC,0.10,VWS V14.01,2013-04-11 12:00:00,
2013-04-11 08:10:00,49.4,49.4,29.91,NE,45,0.0,1.0,100,0.00,,SKC,0.10,VWS V14.01,2013-04-11 12:10:00,
2013-04-11 08:20:00,49.6,49.6,29.91,NE,45,0.0,0.0,100,0.00,,SKC,0.10,VWS V14.01,2013-04-11 12:20:00,
2013-04-11 08:30:00,49.8,49.8,29.91,NE,45,0.0,0.0,100,0.00,,SKC,0.10,VWS V14.01,2013-04-11 12:30:00,
2013-04-11 08:40:00,49.9,49.9,29.91,NE,45,0.0,0.0,100,0.00,,SKC,0.10,VWS V14.01,2013-04-11 12:40:00,
2013-04-11 08:50:00,49.5,49.5,29.92,NE,45,0.0,0.0,100,0.00,,SKC,0.10,VWS V14.01,2013-04-11 12:50:00,
2013-04-11 09:00:00,48.8,48.8,29.93,NE,45,0.0,3.0,100,0.00,,SKC,0.10,VWS V14.01,2013-04-11 13:00:00,
2013-04-11 09:10:00,48.0,48.0,29.93,NE,45,0.0,1.0,100,0.00,,SKC,0.10,VWS V14.01,2013-04-11 13:10:00,
2013-04-11 09:20:00,47.7,47.7,29.93,NE,45,0.0,1.0,100,0.00,,SKC,0.10,VWS V14.01,2013-04-11 13:20:00,
2013-04-11 09:30:00,47.7,47.7,29.93,NE,45,0.0,0.0,100,0.00,,SKC,0.10,VWS V14.01,2013-04-11 13:30:00,
2013-04-11 09:40:00,48.3,48.3,29.94,NE,45,0.0,3.0,100,0.00,,SKC,0.10,VWS V14.01,2013-04-11 13:40:00,
2013-04-11 09:50:00,49.8,49.8,29.94,NE,45,0.0,1.0,100,0.00,,SKC,0.10,VWS V14.01,2013-04-11 13:50:00,
2013-04-11 10:13:00,52.5,52.5,29.94,ENE,74,1.0,3.0,100,0.00,,SKC,0.10,VWS V14.01,2013-04-11 14:13:00,
2013-04-11 10:18:00,52.8,52.8,29.94,East,88,0.0,4.0,100,0.00,,SKC,0.10,VWS V14.01,2013-04-11 14:18:00,
2013-04-11 10:20:00,53.2,52.9,29.94,East,88,0.0,4.0,99,0.00,,SKC,0.10,VWS V14.01,2013-04-11 14:20:00,
2013-04-11 10:23:00,53.3,53.0,29.93,East,88,0.0,0.0,99,0.00,,SKC,0.10,VWS V14.01,2013-04-11 14:23:00,
2013-04-11 10:29:00,53.5,53.0,29.93,East,88,0.0,1.0,98,0.00,,SKC,0.10,VWS V14.01,2013-04-11 14:29:00,
2013-04-11 10:30:00,53.3,52.5,29.93,East,88,1.0,2.0,97,0.00,,SKC,0.10,VWS V14.01,2013-04-11 14:30:00,
2013-04-11 10:34:00,53.3,52.2,29.93,East,88,0.0,2.0,96,0.00,,SKC,0.10,VWS V14.01,2013-04-11 14:34:00,
2013-04-11 10:39:00,53.5,52.1,29.93,East,88,0.0,2.0,95,0.00,,SKC,0.10,VWS V14.01,2013-04-11 14:39:00,
2013-04-11 10:40:00,53.5,52.1,29.92,East,90,1.0,4.0,95,0.00,,SKC,0.10,VWS V14.01,2013-04-11 14:40:00,
2013-04-11 10:45:00,53.6,52.2,29.93,East,96,2.0,2.0,95,0.00,,SKC,0.10,VWS V14.01,2013-04-11 14:45:00,
2013-04-11 10:50:00,53.9,52.2,29.92,East,96,0.0,4.0,94,0.00,,SKC,0.10,VWS V14.01,2013-04-11 14:50:00,
2013-04-11 10:55:00,54.5,52.5,29.93,East,95,0.0,4.0,93,0.00,,SKC,0.10,VWS V14.01,2013-04-11 14:55:00,
2013-04-11 11:00:00,54.5,51.9,29.93,East,96,0.0,4.0,91,0.00,,SKC,0.10,VWS V14.01,2013-04-11 15:00:00,
2013-04-11 11:05:00,54.7,51.8,29.93,East,90,1.0,4.0,90,0.00,,SKC,0.10,VWS V14.01,2013-04-11 15:05:00,
2013-04-11 11:10:00,54.7,51.5,29.94,East,90,0.0,4.0,89,0.00,,SKC,0.10,VWS V14.01,2013-04-11 15:10:00,
2013-04-11 11:11:00,55.0,52.1,29.94,East,90,0.0,4.0,90,0.00,,SKC,0.10,VWS V14.01,2013-04-11 15:11:00,
2013-04-11 11:16:00,54.2,51.0,29.94,East,90,0.0,0.0,89,0.00,,SKC,0.10,VWS V14.01,2013-04-11 15:16:00,
2013-04-11 11:20:00,53.2,50.7,29.94,East,90,0.0,1.0,91,0.00,,SKC,0.10,VWS V14.01,2013-04-11 15:20:00,
2013-04-11 11:21:00,53.2,50.7,29.94,East,90,0.0,1.0,91,0.00,,SKC,0.10,VWS V14.01,2013-04-11 15:21:00,
2013-04-11 11:26:00,52.6,50.3,29.94,East,90,0.0,0.0,92,0.00,,SKC,0.10,VWS V14.01,2013-04-11 15:26:00,
2013-04-11 11:30:00,52.5,50.2,29.94,East,90,0.0,1.0,92,0.00,,SKC,0.10,VWS V14.01,2013-04-11 15:30:00,
2013-04-11 11:32:00,52.5,50.2,29.94,East,90,0.0,1.0,92,0.00,,SKC,0.10,VWS V14.01,2013-04-11 15:32:00,
2013-04-11 11:37:00,52.8,51.1,29.95,East,90,0.0,0.0,94,0.00,,SKC,0.10,VWS V14.01,2013-04-11 15:37:00,
2013-04-11 11:40:00,52.6,50.0,29.95,East,90,0.0,0.0,91,0.00,,SKC,0.10,VWS V14.01,2013-04-11 15:40:00,
2013-04-11 11:42:00,52.6,50.3,29.95,East,90,0.0,0.0,92,0.00,,SKC,0.10,VWS V14.01,2013-04-11 15:42:00,
2013-04-11 11:47:00,52.8,50.5,29.95,East,90,0.0,0.0,92,0.00,,SKC,0.10,VWS V14.01,2013-04-11 15:47:00,
2013-04-11 11:50:00,52.9,50.6,29.95,East,90,0.0,1.0,92,0.00,,SKC,0.10,VWS V14.01,2013-04-11 15:50:00,
2013-04-11 11:53:00,52.9,50.6,29.95,East,90,0.0,0.0,92,0.00,,SKC,0.10,VWS V14.01,2013-04-11 15:53:00,
2013-04-11 11:58:00,52.8,50.5,29.95,East,90,0.0,2.0,92,0.00,,SKC,0.10,VWS V14.01,2013-04-11 15:58:00,
2013-04-11 12:00:00,53.5,51.5,29.95,East,90,0.0,2.0,93,0.00,,SKC,0.10,VWS V14.01,2013-04-11 16:00:00,
2013-04-11 12:03:00,53.8,51.5,29.95,East,90,0.0,0.0,92,0.00,,SKC,0.10,VWS V14.01,2013-04-11 16:03:00,
2013-04-11 12:09:00,53.2,50.3,29.95,East,90,0.0,1.0,90,0.00,,SKC,0.10,VWS V14.01,2013-04-11 16:09:00,
2013-04-11 12:10:00,52.6,50.0,29.95,East,90,0.0,2.0,91,0.00,,SKC,0.10,VWS V14.01,2013-04-11 16:10:00,
2013-04-11 12:14:00,52.8,50.5,29.95,East,90,0.0,1.0,92,0.00,,SKC,0.10,VWS V14.01,2013-04-11 16:14:00,
2013-04-11 12:19:00,53.1,50.5,29.95,East,90,1.0,2.0,91,0.00,,SKC,0.10,VWS V14.01,2013-04-11 16:19:00,
2013-04-11 12:20:00,53.1,50.5,29.95,East,90,0.0,2.0,91,0.00,,SKC,0.10,VWS V14.01,2013-04-11 16:20:00,
2013-04-11 12:24:00,53.1,50.5,29.95,East,90,1.0,1.0,91,0.00,,SKC,0.10,VWS V14.01,2013-04-11 16:24:00,
2013-04-11 12:29:00,53.2,50.7,29.95,East,90,0.0,1.0,91,0.00,,SKC,0.10,VWS V14.01,2013-04-11 16:29:00,
2013-04-11 12:30:00,52.9,50.0,29.96,East,90,0.0,2.0,90,0.00,,SKC,0.10,VWS V14.01,2013-04-11 16:30:00,
2013-04-11 12:34:00,53.1,50.5,29.96,East,90,0.0,1.0,91,0.00,,SKC,0.10,VWS V14.01,2013-04-11 16:34:00,
2013-04-11 12:40:00,54.7,51.8,29.96,East,90,0.0,1.0,90,0.00,,SKC,0.10,VWS V14.01,2013-04-11 16:40:00,
2013-04-11 12:45:00,54.7,50.9,29.96,East,90,0.0,1.0,87,0.00,,SKC,0.10,VWS V14.01,2013-04-11 16:45:00,
2013-04-11 12:50:00,54.2,50.4,29.96,East,90,0.0,1.0,87,0.00,,SKC,0.10,VWS V14.01,2013-04-11 16:50:00,
2013-04-11 12:55:00,53.6,49.5,29.96,East,90,0.0,2.0,86,0.00,,SKC,0.10,VWS V14.01,2013-04-11 16:55:00,
2013-04-11 13:00:00,52.9,49.1,29.97,East,90,0.0,2.0,87,0.00,,SKC,0.10,VWS V14.01,2013-04-11 17:00:00,
2013-04-11 13:05:00,52.3,49.2,29.97,East,90,0.0,0.0,89,0.00,,SKC,0.10,VWS V14.01,2013-04-11 17:05:00,
2013-04-11 13:10:00,52.2,49.1,29.97,East,90,0.0,1.0,89,0.00,,SKC,0.10,VWS V14.01,2013-04-11 17:10:00,
2013-04-11 13:16:00,51.7,48.9,29.97,East,90,0.0,1.0,90,0.00,,SKC,0.10,VWS V14.01,2013-04-11 17:16:00,
2013-04-11 13:20:00,51.6,48.8,29.97,East,90,0.0,1.0,90,0.00,,SKC,0.10,VWS V14.01,2013-04-11 17:20:00,
2013-04-11 13:21:00,51.7,49.2,29.97,East,90,0.0,1.0,91,0.00,,SKC,0.10,VWS V14.01,2013-04-11 17:21:00,
2013-04-11 13:26:00,51.3,48.8,29.97,East,90,0.0,2.0,91,0.00,,SKC,0.10,VWS V14.01,2013-04-11 17:26:00,
2013-04-11 13:30:00,51.6,48.8,29.97,East,90,0.0,2.0,90,0.00,,SKC,0.10,VWS V14.01,2013-04-11 17:30:00,
2013-04-11 13:31:00,51.6,48.8,29.97,East,90,0.0,2.0,90,0.00,,SKC,0.10,VWS V14.01,2013-04-11 17:31:00,
2013-04-11 13:36:00,51.3,48.5,29.98,East,90,0.0,2.0,90,0.00,,SKC,0.10,VWS V14.01,2013-04-11 17:36:00,
2013-04-11 13:40:00,51.0,48.2,29.98,East,90,0.0,2.0,90,0.00,,SKC,0.10,VWS V14.01,2013-04-11 17:40:00,
2013-04-11 13:42:00,51.0,48.2,29.98,East,90,0.0,2.0,90,0.00,,SKC,0.10,VWS V14.01,2013-04-11 17:42:00,
2013-04-11 13:47:00,51.0,48.2,29.98,East,90,0.0,1.0,90,0.00,,SKC,0.10,VWS V14.01,2013-04-11 17:47:00,
2013-04-11 13:50:00,50.8,48.0,29.98,East,90,0.0,1.0,90,0.00,,SKC,0.10,VWS V14.01,2013-04-11 17:50:00,
2013-04-11 13:52:00,50.8,48.3,29.98,East,90,0.0,0.0,91,0.00,,SKC,0.10,VWS V14.01,2013-04-11 17:52:00,
2013-04-11 13:57:00,51.3,48.5,29.98,East,90,0.0,1.0,90,0.00,,SKC,0.10,VWS V14.01,2013-04-11 17:57:00,
2013-04-11 14:00:00,51.1,48.3,29.98,East,90,0.0,1.0,90,0.00,,SKC,0.10,VWS V14.01,2013-04-11 18:00:00,
2013-04-11 14:03:00,51.1,48.3,29.98,East,90,1.0,1.0,90,0.00,,SKC,0.10,VWS V14.01,2013-04-11 18:03:00,
2013-04-11 14:08:00,51.0,48.2,29.98,East,90,0.0,2.0,90,0.00,,SKC,0.10,VWS V14.01,2013-04-11 18:08:00,
2013-04-11 14:10:00,50.7,47.6,29.98,East,92,4.0,4.0,89,0.00,,SKC,0.10,VWS V14.01,2013-04-11 18:10:00,
2013-04-11 14:13:00,50.4,47.3,29.98,East,92,1.0,4.0,89,0.00,,SKC,0.10,VWS V14.01,2013-04-11 18:13:00,
2013-04-11 14:18:00,50.2,47.7,29.98,East,94,1.0,4.0,91,0.00,,SKC,0.10,VWS V14.01,2013-04-11 18:18:00,
2013-04-11 14:20:00,50.5,47.7,29.98,East,94,0.0,4.0,90,0.00,,SKC,0.10,VWS V14.01,2013-04-11 18:20:00,
2013-04-11 14:24:00,50.5,47.4,29.97,East,94,1.0,1.0,89,0.00,,SKC,0.10,VWS V14.01,2013-04-11 18:24:00,
2013-04-11 14:29:00,50.5,47.4,29.97,ESE,104,1.0,2.0,89,0.00,,SKC,0.10,VWS V14.01,2013-04-11 18:29:00,
2013-04-11 14:30:00,50.5,47.4,29.97,ESE,105,1.0,2.0,89,0.00,,SKC,0.10,VWS V14.01,2013-04-11 18:30:00,
2013-04-11 14:34:00,50.5,47.7,29.97,ESE,105,2.0,2.0,90,0.00,,SKC,0.10,VWS V14.01,2013-04-11 18:34:00,
2013-04-11 14:39:00,50.8,47.1,29.97,ESE,103,0.0,4.0,87,0.00,,SKC,0.10,VWS V14.01,2013-04-11 18:39:00,
2013-04-11 14:40:00,51.1,47.7,29.97,ESE,103,0.0,4.0,88,0.00,,SKC,0.10,VWS V14.01,2013-04-11 18:40:00,
2013-04-11 14:44:00,51.1,47.7,29.98,ESE,103,2.0,2.0,88,0.00,,SKC,0.10,VWS V14.01,2013-04-11 18:44:00,
2013-04-11 14:50:00,50.8,47.1,29.98,ENE,69,1.0,4.0,87,0.00,,SKC,0.10,VWS V14.01,2013-04-11 18:50:00,
2013-04-11 14:55:00,50.4,46.4,29.99,NNE,32,0.0,5.0,86,0.00,,SKC,0.10,VWS V14.01,2013-04-11 18:55:00,
2013-04-11 15:00:00,50.4,46.4,29.98,NNE,32,0.0,5.0,86,0.00,,SKC,0.10,VWS V14.01,2013-04-11 19:00:00,
2013-04-11 15:05:00,50.2,46.2,29.98,NNE,32,0.0,2.0,86,0.00,,SKC,0.10,VWS V14.01,2013-04-11 19:05:00,
2013-04-11 15:10:00,49.8,46.1,29.98,NE,35,0.0,2.0,87,0.00,,SKC,0.10,VWS V14.01,2013-04-11 19:10:00,
2013-04-11 15:11:00,49.8,46.1,29.98,NE,35,0.0,2.0,87,0.00,,SKC,0.10,VWS V14.01,2013-04-11 19:11:00,
2013-04-11 15:16:00,49.8,46.1,29.98,East,88,0.0,2.0,87,0.00,,SKC,0.10,VWS V14.01,2013-04-11 19:16:00,
2013-04-11 15:20:00,50.1,46.4,29.98,East,98,0.0,5.0,87,0.00,,SKC,0.10,VWS V14.01,2013-04-11 19:20:00,
2013-04-11 15:21:00,49.9,46.2,29.98,East,98,0.0,5.0,87,0.00,,SKC,0.10,VWS V14.01,2013-04-11 19:21:00,
2013-04-11 15:27:00,49.8,45.8,29.98,East,98,2.0,2.0,86,0.00,,SKC,0.10,VWS V14.01,2013-04-11 19:27:00,
2013-04-11 15:30:00,49.8,45.8,29.98,East,98,1.0,2.0,86,0.00,,SKC,0.10,VWS V14.01,2013-04-11 19:30:00,
2013-04-11 15:32:00,49.8,45.8,29.98,East,98,1.0,2.0,86,0.00,,SKC,0.10,VWS V14.01,2013-04-11 19:32:00,
2013-04-11 15:37:00,49.6,45.6,29.98,East,98,1.0,2.0,86,0.00,,SKC,0.10,VWS V14.01,2013-04-11 19:37:00,
2013-04-11 15:40:00,49.5,45.8,29.98,East,98,1.0,4.0,87,0.00,,SKC,0.10,VWS V14.01,2013-04-11 19:40:00,
2013-04-11 15:42:00,49.5,45.8,29.98,East,98,1.0,1.0,87,0.00,,SKC,0.10,VWS V14.01,2013-04-11 19:42:00,
2013-04-11 15:47:00,49.6,45.6,29.98,East,94,0.0,4.0,86,0.00,,SKC,0.10,VWS V14.01,2013-04-11 19:47:00,
2013-04-11 15:50:00,50.1,45.8,29.98,East,94,0.0,4.0,85,0.00,,SKC,0.10,VWS V14.01,2013-04-11 19:50:00,
2013-04-11 15:53:00,50.1,46.1,29.98,East,92,2.0,4.0,86,0.00,,SKC,0.10,VWS V14.01,2013-04-11 19:53:00,
2013-04-11 15:58:00,50.2,45.9,29.98,ENE,72,0.0,4.0,85,0.00,,SKC,0.10,VWS V14.01,2013-04-11 19:58:00,
2013-04-11 16:00:00,50.2,45.6,29.98,East,82,0.0,4.0,84,0.00,,SKC,0.10,VWS V14.01,2013-04-11 20:00:00,
2013-04-11 16:03:00,50.2,45.6,29.98,East,82,0.0,1.0,84,0.00,,SKC,0.10,VWS V14.01,2013-04-11 20:03:00,
2013-04-11 16:08:00,50.5,45.5,29.98,East,87,0.0,3.0,83,0.00,,SKC,0.10,VWS V14.01,2013-04-11 20:08:00,
2013-04-11 16:10:00,50.2,45.2,29.98,ENE,59,1.0,3.0,83,0.00,,SKC,0.10,VWS V14.01,2013-04-11 20:10:00,
2013-04-11 16:13:00,50.1,45.2,29.97,ENE,60,0.0,1.0,83,0.00,,SKC,0.10,VWS V14.01,2013-04-11 20:13:00,
2013-04-11 16:18:00,49.6,45.0,29.97,ENE,61,1.0,2.0,84,0.00,,SKC,0.10,VWS V14.01,2013-04-11 20:18:00,
2013-04-11 16:20:00,49.5,44.9,29.98,ENE,74,3.0,4.0,84,0.00,,SKC,0.10,VWS V14.01,2013-04-11 20:20:00,
2013-04-11 16:23:00,49.4,44.8,29.98,East,88,1.0,3.0,84,0.00,,SKC,0.10,VWS V14.01,2013-04-11 20:23:00,
2013-04-11 16:29:00,49.2,44.9,29.97,East,88,0.0,3.0,85,0.00,,SKC,0.10,VWS V14.01,2013-04-11 20:29:00,
2013-04-11 16:30:00,49.2,44.9,29.97,ENE,65,0.0,3.0,85,0.00,,SKC,0.10,VWS V14.01,2013-04-11 20:30:00,
2013-04-11 16:34:00,49.1,45.1,29.97,ENE,67,1.0,2.0,86,0.00,,SKC,0.10,VWS V14.01,2013-04-11 20:34:00,
2013-04-11 16:39:00,48.9,44.9,29.97,East,92,0.0,2.0,86,0.00,,SKC,0.10,VWS V14.01,2013-04-11 20:39:00,
2013-04-11 16:40:00,48.9,44.9,29.98,East,92,1.0,2.0,86,0.00,,SKC,0.10,VWS V14.01,2013-04-11 20:40:00,
2013-04-11 16:44:00,48.6,44.6,29.98,East,91,0.0,2.0,86,0.00,,SKC,0.10,VWS V14.01,2013-04-11 20:44:00,
2013-04-11 16:49:00,48.5,44.5,29.98,East,90,0.0,4.0,86,0.00,,SKC,0.10,VWS V14.01,2013-04-11 20:49:00,
2013-04-11 16:50:00,48.3,44.3,29.98,ENE,75,1.0,4.0,86,0.00,,SKC,0.10,VWS V14.01,2013-04-11 20:50:00,
2013-04-11 16:55:00,48.0,44.3,29.98,ENE,77,0.0,3.0,87,0.00,,SKC,0.10,VWS V14.01,2013-04-11 20:55:00,
2013-04-11 17:00:00,48.0,44.3,29.98,ENE,77,0.0,3.0,87,0.00,,SKC,0.10,VWS V14.01,2013-04-11 21:00:00,
2013-04-11 17:05:00,47.6,43.9,29.98,ENE,77,0.0,1.0,87,0.00,,SKC,0.10,VWS V14.01,2013-04-11 21:05:00,
2013-04-11 17:10:00,47.6,44.5,29.98,ENE,77,0.0,2.0,89,0.00,,SKC,0.10,VWS V14.01,2013-04-11 21:10:00,
2013-04-11 17:15:00,47.6,44.8,29.98,ENE,77,0.0,1.0,90,0.00,,SKC,0.10,VWS V14.01,2013-04-11 21:15:00,
2013-04-11 17:20:00,47.4,44.6,29.99,ENE,77,0.0,1.0,90,0.00,,SKC,0.10,VWS V14.01,2013-04-11 21:20:00,
2013-04-11 17:21:00,47.4,44.6,29.99,ENE,77,0.0,1.0,90,0.00,,SKC,0.10,VWS V14.01,2013-04-11 21:21:00,
2013-04-11 17:26:00,47.3,44.5,29.99,ENE,77,0.0,1.0,90,0.00,,SKC,0.10,VWS V14.01,2013-04-11 21:26:00,
2013-04-11 17:30:00,47.0,44.2,29.99,ENE,77,0.0,2.0,90,0.00,,SKC,0.10,VWS V14.01,2013-04-11 21:30:00,
2013-04-11 17:31:00,47.0,44.2,29.99,ENE,77,0.0,2.0,90,0.00,,SKC,0.10,VWS V14.01,2013-04-11 21:31:00,
2013-04-11 17:36:00,46.7,43.9,29.99,ENE,77,0.0,1.0,90,0.00,,SKC,0.10,VWS V14.01,2013-04-11 21:36:00,
2013-04-11 17:40:00,46.5,43.7,29.99,ENE,77,0.0,2.0,90,0.00,,SKC,0.10,VWS V14.01,2013-04-11 21:40:00,
2013-04-11 17:41:00,46.5,43.7,29.99,ENE,77,0.0,2.0,90,0.00,,SKC,0.10,VWS V14.01,2013-04-11 21:41:00,
2013-04-11 17:47:00,46.7,43.9,29.99,ENE,78,0.0,2.0,90,0.00,,SKC,0.10,VWS V14.01,2013-04-11 21:47:00,
2013-04-11 17:50:00,46.5,43.7,29.99,ENE,78,0.0,2.0,90,0.00,,SKC,0.10,VWS V14.01,2013-04-11 21:50:00,
2013-04-11 17:52:00,46.5,43.7,29.99,ENE,78,0.0,0.0,90,0.00,,SKC,0.10,VWS V14.01,2013-04-11 21:52:00,
2013-04-11 17:57:00,46.5,43.7,29.99,ENE,78,0.0,1.0,90,0.00,,SKC,0.10,VWS V14.01,2013-04-11 21:57:00,
2013-04-11 18:00:00,46.4,43.6,29.99,ENE,78,0.0,1.0,90,0.00,,SKC,0.10,VWS V14.01,2013-04-11 22:00:00,
2013-04-11 18:02:00,46.4,43.6,29.99,ENE,78,0.0,1.0,90,0.00,,SKC,0.10,VWS V14.01,2013-04-11 22:02:00,
2013-04-11 18:08:00,46.2,43.4,29.99,ENE,78,0.0,2.0,90,0.00,,SKC,0.10,VWS V14.01,2013-04-11 22:08:00,
2013-04-11 18:10:00,46.2,43.1,29.99,ENE,78,0.0,2.0,89,0.00,,SKC,0.10,VWS V14.01,2013-04-11 22:10:00,
2013-04-11 18:13:00,46.1,43.0,29.99,ENE,78,0.0,1.0,89,0.00,,SKC,0.10,VWS V14.01,2013-04-11 22:13:00,
2013-04-11 18:18:00,46.1,43.0,29.99,ENE,78,0.0,1.0,89,0.00,,SKC,0.10,VWS V14.01,2013-04-11 22:18:00,
2013-04-11 18:20:00,46.0,43.0,30.00,ENE,78,0.0,1.0,89,0.00,,SKC,0.10,VWS V14.01,2013-04-11 22:20:00,
2013-04-11 18:24:00,46.0,43.0,30.00,ENE,78,0.0,1.0,89,0.00,,SKC,0.10,VWS V14.01,2013-04-11 22:24:00,
2013-04-11 18:29:00,45.8,42.8,30.00,ENE,78,0.0,2.0,89,0.00,,SKC,0.10,VWS V14.01,2013-04-11 22:29:00,
2013-04-11 18:30:00,45.8,42.5,30.00,ENE,78,0.0,2.0,88,0.00,,SKC,0.10,VWS V14.01,2013-04-11 22:30:00,
2013-04-11 18:34:00,45.8,42.5,30.00,ENE,78,0.0,2.0,88,0.00,,SKC,0.10,VWS V14.01,2013-04-11 22:34:00,
2013-04-11 18:39:00,45.7,42.4,30.00,ENE,78,0.0,2.0,88,0.00,,SKC,0.10,VWS V14.01,2013-04-11 22:39:00,
2013-04-11 18:40:00,45.8,42.5,30.00,ENE,78,1.0,2.0,88,0.00,,SKC,0.10,VWS V14.01,2013-04-11 22:40:00,
2013-04-11 18:44:00,45.7,42.4,30.01,ENE,78,0.0,1.0,88,0.00,,SKC,0.10,VWS V14.01,2013-04-11 22:44:00,
2013-04-11 18:49:00,45.7,42.4,30.01,ENE,78,0.0,1.0,88,0.00,,SKC,0.10,VWS V14.01,2013-04-11 22:49:00,
2013-04-11 18:50:00,45.7,42.4,30.01,ENE,78,0.0,2.0,88,0.00,,SKC,0.10,VWS V14.01,2013-04-11 22:50:00,
2013-04-11 18:54:00,45.7,42.4,30.01,ENE,78,0.0,1.0,88,0.00,,SKC,0.10,VWS V14.01,2013-04-11 22:54:00,
2013-04-11 19:00:00,45.7,42.1,30.01,ENE,78,0.0,1.0,87,0.00,,SKC,0.10,VWS V14.01,2013-04-11 23:00:00,
2013-04-11 19:05:00,45.7,42.4,30.01,ENE,78,0.0,0.0,88,0.00,,SKC,0.10,VWS V14.01,2013-04-11 23:05:00,
2013-04-11 19:10:00,45.7,42.1,30.02,ENE,78,0.0,1.0,87,0.00,,SKC,0.10,VWS V14.01,2013-04-11 23:10:00,
2013-04-11 19:15:00,45.7,42.4,30.02,ENE,78,0.0,0.0,88,0.00,,SKC,0.10,VWS V14.01,2013-04-11 23:15:00,
2013-04-11 19:20:00,45.7,42.4,30.02,ENE,78,0.0,0.0,88,0.00,,SKC,0.10,VWS V14.01,2013-04-11 23:20:00,
2013-04-11 19:25:00,45.7,42.4,30.03,ENE,78,0.0,0.0,88,0.00,,SKC,0.10,VWS V14.01,2013-04-11 23:25:00,
2013-04-11 19:30:00,45.7,42.4,30.03,ENE,78,0.0,0.0,88,0.00,,SKC,0.10,VWS V14.01,2013-04-11 23:30:00,
2013-04-11 19:36:00,45.7,42.4,30.03,ENE,78,0.0,0.0,88,0.00,,SKC,0.10,VWS V14.01,2013-04-11 23:36:00,
2013-04-11 19:40:00,45.5,42.2,30.03,ENE,78,0.0,2.0,88,0.00,,SKC,0.10,VWS V14.01,2013-04-11 23:40:00,
2013-04-11 19:41:00,45.5,42.2,30.03,ENE,78,0.0,2.0,88,0.00,,SKC,0.10,VWS V14.01,2013-04-11 23:41:00,
2013-04-11 19:46:00,45.5,42.2,30.02,ENE,78,0.0,1.0,88,0.00,,SKC,0.10,VWS V14.01,2013-04-11 23:46:00,
2013-04-11 19:50:00,45.4,42.1,30.02,ENE,78,0.0,1.0,88,0.00,,SKC,0.10,VWS V14.01,2013-04-11 23:50:00,
2013-04-11 19:51:00,45.4,42.1,30.02,ENE,78,0.0,1.0,88,0.00,,SKC,0.10,VWS V14.01,2013-04-11 23:51:00,
2013-04-11 19:56:00,45.2,41.9,30.02,ENE,78,1.0,1.0,88,0.00,,SKC,0.10,VWS V14.01,2013-04-11 23:56:00,
2013-04-11 20:00:00,45.2,42.2,30.03,ENE,78,1.0,2.0,89,0.00,,SKC,0.10,VWS V14.01,2013-04-12 00:00:00,
2013-04-11 20:02:00,45.2,42.2,30.03,ENE,78,1.0,2.0,89,0.00,,SKC,0.10,VWS V14.01,2013-04-12 00:02:00,
2013-04-11 20:07:00,45.1,42.1,30.03,ENE,78,0.0,2.0,89,0.00,,SKC,0.10,VWS V14.01,2013-04-12 00:07:00,
2013-04-11 20:10:00,45.1,42.1,30.02,ENE,78,0.0,2.0,89,0.00,,SKC,0.10,VWS V14.01,2013-04-12 00:10:00,
2013-04-11 20:12:00,45.1,42.1,30.03,ENE,78,0.0,0.0,89,0.00,,SKC,0.10,VWS V14.01,2013-04-12 00:12:00,
2013-04-11 20:17:00,45.1,42.1,30.03,ENE,78,1.0,1.0,89,0.00,,SKC,0.10,VWS V14.01,2013-04-12 00:17:00,
2013-04-11 20:20:00,45.1,42.1,30.03,ENE,78,0.0,1.0,89,0.00,,SKC,0.10,VWS V14.01,2013-04-12 00:20:00,
2013-04-11 20:22:00,45.1,42.1,30.03,ENE,78,1.0,1.0,89,0.00,,SKC,0.10,VWS V14.01,2013-04-12 00:22:00,
2013-04-11 20:28:00,45.1,42.1,30.02,ENE,78,1.0,3.0,89,0.00,,SKC,0.10,VWS V14.01,2013-04-12 00:28:00,
2013-04-11 20:30:00,45.1,42.1,30.02,ENE,78,0.0,3.0,89,0.00,,SKC,0.10,VWS V14.01,2013-04-12 00:30:00,
2013-04-11 20:33:00,45.1,42.1,30.03,ENE,78,1.0,2.0,89,0.00,,SKC,0.10,VWS V14.01,2013-04-12 00:33:00,
2013-04-11 20:38:00,45.1,42.1,30.03,ENE,78,1.0,4.0,89,0.00,,SKC,0.10,VWS V14.01,2013-04-12 00:38:00,
2013-04-11 20:40:00,44.9,42.2,30.03,ENE,78,1.0,4.0,90,0.00,,SKC,0.10,VWS V14.01,2013-04-12 00:40:00,
2013-04-11 20:43:00,44.9,42.2,30.03,ENE,78,0.0,2.0,90,0.00,,SKC,0.10,VWS V14.01,2013-04-12 00:43:00,
2013-04-11 20:49:00,44.9,42.2,30.03,ENE,78,0.0,3.0,90,0.00,,SKC,0.10,VWS V14.01,2013-04-12 00:49:00,
2013-04-11 20:50:00,44.9,42.2,30.03,ENE,78,0.0,3.0,90,0.00,,SKC,0.10,VWS V14.01,2013-04-12 00:50:00,
2013-04-11 20:54:00,44.8,42.0,30.02,ENE,78,0.0,3.0,90,0.00,,SKC,0.10,VWS V14.01,2013-04-12 00:54:00,
2013-04-11 20:59:00,44.8,42.0,30.03,ENE,78,1.0,3.0,90,0.00,,SKC,0.10,VWS V14.01,2013-04-12 00:59:00,
2013-04-11 21:00:00,44.8,42.0,30.03,ENE,78,2.0,3.0,90,0.00,,SKC,0.10,VWS V14.01,2013-04-12 01:00:00,
2013-04-11 21:09:00,44.8,42.0,30.03,ENE,78,0.0,0.0,90,0.00,,SKC,0.10,VWS V14.01,2013-04-12 01:09:00,
2013-04-11 21:10:00,44.8,42.0,30.03,ENE,78,0.0,1.0,90,0.00,,SKC,0.10,VWS V14.01,2013-04-12 01:10:00,
2013-04-11 21:19:00,44.8,42.0,30.03,ENE,78,0.0,0.0,90,0.00,,SKC,0.10,VWS V14.01,2013-04-12 01:19:00,
2013-04-11 21:20:00,44.8,42.0,30.03,ENE,78,0.0,2.0,90,0.00,,SKC,0.10,VWS V14.01,2013-04-12 01:20:00,
2013-04-11 21:24:00,44.8,42.0,30.03,ENE,78,0.0,1.0,90,0.00,,SKC,0.10,VWS V14.01,2013-04-12 01:24:00,
2013-04-11 21:29:00,44.8,42.0,30.04,ENE,78,0.0,1.0,90,0.00,,SKC,0.10,VWS V14.01,2013-04-12 01:29:00,
2013-04-11 21:30:00,44.8,42.0,30.04,ENE,78,1.0,2.0,90,0.00,,SKC,0.10,VWS V14.01,2013-04-12 01:30:00,
2013-04-11 21:34:00,44.6,41.8,30.05,ENE,78,0.0,3.0,90,0.00,,SKC,0.10,VWS V14.01,2013-04-12 01:34:00,
2013-04-11 21:39:00,44.6,41.8,30.05,ENE,78,0.0,3.0,90,0.00,,SKC,0.10,VWS V14.01,2013-04-12 01:39:00,
2013-04-11 21:40:00,44.6,41.8,30.06,ENE,78,0.0,3.0,90,0.00,,SKC,0.10,VWS V14.01,2013-04-12 01:40:00,
2013-04-11 21:45:00,44.6,41.8,30.06,ENE,78,0.0,0.0,90,0.00,,SKC,0.10,VWS V14.01,2013-04-12 01:45:00,
2013-04-11 21:50:00,44.6,41.6,30.06,ENE,78,0.0,2.0,89,0.00,,SKC,0.10,VWS V14.01,2013-04-12 01:50:00,
2013-04-11 21:55:00,44.6,41.8,30.06,ENE,78,0.0,1.0,90,0.00,,SKC,0.10,VWS V14.01,2013-04-12 01:55:00,
2013-04-11 22:00:00,44.6,41.6,30.06,ENE,78,0.0,1.0,89,0.00,,SKC,0.10,VWS V14.01,2013-04-12 02:00:00,
2013-04-11 22:01:00,44.6,41.6,30.06,ENE,78,0.0,1.0,89,0.00,,SKC,0.10,VWS V14.01,2013-04-12 02:01:00,
2013-04-11 22:06:00,44.6,41.6,30.06,ENE,78,0.0,0.0,89,0.00,,SKC,0.10,VWS V14.01,2013-04-12 02:06:00,
2013-04-11 22:10:00,44.6,41.6,30.05,ENE,78,0.0,0.0,89,0.00,,SKC,0.10,VWS V14.01,2013-04-12 02:10:00,
2013-04-11 22:12:00,44.6,41.6,30.05,ENE,78,0.0,0.0,89,0.00,,SKC,0.10,VWS V14.01,2013-04-12 02:12:00,
2013-04-11 22:17:00,44.6,41.6,30.06,ENE,78,0.0,1.0,89,0.00,,SKC,0.10,VWS V14.01,2013-04-12 02:17:00,
2013-04-11 22:20:00,44.6,41.6,30.06,ENE,78,0.0,2.0,89,0.00,,SKC,0.10,VWS V14.01,2013-04-12 02:20:00,
2013-04-11 22:22:00,44.6,41.6,30.06,ENE,78,0.0,2.0,89,0.00,,SKC,0.10,VWS V14.01,2013-04-12 02:22:00,
2013-04-11 22:27:00,44.6,41.6,30.06,ENE,78,0.0,1.0,89,0.00,,SKC,0.10,VWS V14.01,2013-04-12 02:27:00,
2013-04-11 22:30:00,44.6,41.6,30.06,ENE,78,0.0,2.0,89,0.00,,SKC,0.10,VWS V14.01,2013-04-12 02:30:00,
2013-04-11 22:32:00,44.6,41.6,30.06,ENE,78,0.0,2.0,89,0.00,,SKC,0.10,VWS V14.01,2013-04-12 02:32:00,
2013-04-11 22:37:00,44.6,41.8,30.05,ENE,78,0.0,2.0,90,0.00,,SKC,0.10,VWS V14.01,2013-04-12 02:37:00,
2013-04-11 22:40:00,44.6,41.8,30.06,ENE,78,0.0,2.0,90,0.00,,SKC,0.10,VWS V14.01,2013-04-12 02:40:00,
2013-04-11 22:42:00,44.6,41.8,30.06,ENE,78,0.0,0.0,90,0.00,,SKC,0.10,VWS V14.01,2013-04-12 02:42:00,
2013-04-11 22:47:00,44.6,41.8,30.07,ENE,59,0.0,2.0,90,0.00,,SKC,0.10,VWS V14.01,2013-04-12 02:47:00,
2013-04-11 22:50:00,44.6,41.8,30.06,ENE,59,0.0,2.0,90,0.00,,SKC,0.10,VWS V14.01,2013-04-12 02:50:00,
2013-04-11 22:52:00,44.5,41.8,30.06,ENE,59,0.0,0.0,90,0.00,,SKC,0.10,VWS V14.01,2013-04-12 02:52:00,
2013-04-11 22:58:00,44.5,41.8,30.06,ENE,59,0.0,0.0,90,0.00,,SKC,0.10,VWS V14.01,2013-04-12 02:58:00,
2013-04-11 23:00:00,44.5,41.8,30.06,ENE,59,0.0,2.0,90,0.00,,SKC,0.10,VWS V14.01,2013-04-12 03:00:00,
2013-04-11 23:03:00,44.5,41.8,30.06,ENE,59,0.0,0.0,90,0.00,,SKC,0.10,VWS V14.01,2013-04-12 03:03:00,
2013-04-11 23:08:00,44.5,41.8,30.05,ENE,59,1.0,1.0,90,0.00,,SKC,0.10,VWS V14.01,2013-04-12 03:08:00,
2013-04-11 23:21:00,44.5,41.8,30.05,ENE,59,0.0,0.0,90,0.00,,SKC,0.10,VWS V14.01,2013-04-12 03:21:00,
2013-04-11 23:26:00,44.5,41.8,30.06,ENE,59,0.0,1.0,90,0.00,,SKC,0.10,VWS V14.01,2013-04-12 03:26:00,
2013-04-11 23:30:00,44.5,41.8,30.06,ENE,73,0.0,2.0,90,0.00,,SKC,0.10,VWS V14.01,2013-04-12 03:30:00,
2013-04-11 23:31:00,44.5,41.8,30.06,ENE,73,0.0,2.0,90,0.00,,SKC,0.10,VWS V14.01,2013-04-12 03:31:00,
2013-04-11 23:36:00,44.5,41.8,30.06,ENE,76,0.0,3.0,90,0.00,,SKC,0.10,VWS V14.01,2013-04-12 03:36:00,
2013-04-11 23:40:00,44.5,41.8,30.06,ENE,76,2.0,3.0,90,0.00,,SKC,0.10,VWS V14.01,2013-04-12 03:40:00,
2013-04-11 23:41:00,44.5,41.8,30.06,ENE,76,0.0,3.0,90,0.00,,SKC,0.10,VWS V14.01,2013-04-12 03:41:00,
2013-04-11 23:46:00,44.5,41.8,30.06,ENE,76,0.0,2.0,90,0.00,,SKC,0.10,VWS V14.01,2013-04-12 03:46:00,
2013-04-11 23:50:00,44.5,41.8,30.06,ENE,68,0.0,2.0,90,0.00,,SKC,0.10,VWS V14.01,2013-04-12 03:50:00,